createdAt,value
2017-06-14T00:00:48.092Z,8.97
2017-06-14T00:03:16.172Z,9.67
2017-06-14T00:05:45.014Z,10.30
2017-06-14T00:08:13.107Z,10.47
2017-06-14T00:10:41.179Z,9.63
2017-06-14T00:13:09.279Z,10.57
2017-06-14T00:15:37.343Z,9.83
2017-06-14T00:18:05.433Z,9.67
2017-06-14T00:20:34.266Z,9.60
2017-06-14T00:23:02.339Z,10.67
2017-06-14T00:25:30.422Z,10.10
2017-06-14T00:27:58.495Z,9.60
2017-06-14T00:30:26.574Z,9.53
2017-06-14T00:32:54.652Z,10.10
2017-06-14T00:35:22.740Z,9.67
2017-06-14T00:37:50.815Z,9.20
2017-06-14T00:40:18.899Z,11.07
2017-06-14T00:42:47.743Z,10.90
2017-06-14T00:45:15.826Z,10.23
2017-06-14T00:47:43.903Z,9.53
2017-06-14T00:50:11.975Z,10.30
2017-06-14T00:52:40.063Z,10.80
2017-06-14T00:55:08.134Z,11.30
2017-06-14T00:57:36.220Z,9.63
2017-06-14T01:00:04.324Z,12.33
2017-06-14T01:02:32.380Z,10.20
2017-06-14T01:05:00.445Z,11.97
2017-06-14T01:07:28.516Z,12.00
2017-06-14T01:09:57.452Z,11.67
2017-06-14T01:12:25.526Z,13.20
2017-06-14T01:14:53.593Z,13.23
2017-06-14T01:17:21.677Z,15.10
2017-06-14T01:19:49.749Z,13.70
2017-06-14T01:22:17.811Z,14.53
2017-06-14T01:24:45.887Z,13.30
2017-06-14T01:27:13.959Z,12.57
2017-06-14T01:29:42.041Z,12.00
2017-06-14T01:32:10.328Z,12.00
2017-06-14T01:34:38.401Z,10.70
2017-06-14T01:37:06.470Z,11.30
2017-06-14T01:39:34.589Z,10.73
2017-06-14T01:42:02.701Z,9.03
2017-06-14T01:44:30.766Z,11.40
2017-06-14T01:46:58.845Z,11.40
2017-06-14T01:49:26.912Z,10.30
2017-06-14T01:51:54.985Z,9.97
2017-06-14T01:54:23.057Z,9.87
2017-06-14T01:56:51.130Z,9.27
2017-06-14T01:59:19.204Z,11.23
2017-06-14T02:01:47.273Z,9.20
2017-06-14T02:04:15.346Z,11.00
2017-06-14T02:06:43.418Z,10.43
2017-06-14T02:09:11.499Z,11.20
2017-06-14T02:11:39.565Z,10.33
2017-06-14T02:14:07.637Z,11.10
2017-06-14T02:16:35.709Z,11.73
2017-06-14T02:19:03.785Z,11.60
2017-06-14T02:21:31.853Z,10.97
2017-06-14T02:23:59.943Z,12.13
2017-06-14T02:26:28.002Z,11.07
2017-06-14T02:28:56.074Z,13.70
2017-06-14T02:31:24.140Z,12.33
2017-06-14T02:33:52.217Z,12.90
2017-06-14T02:36:20.289Z,12.63
2017-06-14T02:38:48.358Z,11.80
2017-06-14T02:41:16.446Z,12.50
2017-06-14T02:43:44.503Z,12.50
2017-06-14T02:46:12.578Z,10.80
2017-06-14T02:48:40.648Z,10.70
2017-06-14T02:51:08.758Z,10.93
2017-06-14T02:53:36.820Z,11.57
2017-06-14T02:56:04.901Z,12.97
2017-06-14T02:58:32.969Z,12.10
2017-06-14T03:01:01.031Z,13.37
2017-06-14T03:03:29.122Z,13.07
2017-06-14T03:05:57.253Z,13.23
2017-06-14T03:08:25.322Z,11.50
2017-06-14T03:10:53.372Z,11.90
2017-06-14T03:13:21.444Z,12.13
2017-06-14T03:15:49.504Z,12.40
2017-06-14T03:18:17.577Z,12.07
2017-06-14T03:21:05.927Z,12.70
2017-06-14T03:23:33.993Z,12.03
2017-06-14T03:26:02.062Z,12.77
2017-06-14T03:28:30.113Z,12.17
2017-06-14T03:30:58.188Z,13.13
2017-06-14T03:33:26.253Z,12.00
2017-06-14T03:35:54.333Z,12.27
2017-06-14T03:38:22.391Z,12.10
2017-06-14T03:40:50.505Z,12.90
2017-06-14T03:43:19.337Z,13.10
2017-06-14T03:45:47.521Z,13.90
2017-06-14T03:48:15.593Z,14.47
2017-06-14T03:50:43.664Z,13.40
2017-06-14T03:53:11.735Z,13.47
2017-06-14T03:55:39.797Z,13.20
2017-06-14T03:58:07.871Z,13.60
2017-06-14T04:00:35.946Z,14.70
2017-06-14T04:03:04.029Z,13.63
2017-06-14T04:05:32.086Z,14.20
2017-06-14T04:08:00.201Z,14.10
2017-06-14T04:10:28.305Z,15.60
2017-06-14T04:12:56.369Z,16.63
2017-06-14T04:15:24.442Z,15.80
2017-06-14T04:17:53.277Z,14.87
2017-06-14T04:20:21.354Z,13.47
2017-06-14T04:22:49.413Z,13.40
2017-06-14T04:25:17.504Z,14.10
2017-06-14T04:27:45.575Z,12.87
2017-06-14T04:30:13.645Z,14.60
2017-06-14T04:32:41.727Z,13.43
2017-06-14T04:35:09.797Z,15.50
2017-06-14T04:37:37.869Z,14.30
2017-06-14T04:40:05.940Z,15.03
2017-06-14T04:42:34.040Z,16.30
2017-06-14T04:45:02.097Z,16.37
2017-06-14T04:47:30.185Z,16.03
2017-06-14T04:49:58.252Z,15.13
2017-06-14T04:52:26.315Z,15.00
2017-06-14T04:54:54.385Z,15.10
2017-06-14T04:57:22.452Z,14.77
2017-06-14T04:59:50.536Z,15.70
2017-06-14T05:02:18.601Z,15.20
2017-06-14T05:04:46.678Z,17.43
2017-06-14T05:07:14.750Z,15.53
2017-06-14T05:09:42.840Z,15.50
2017-06-14T05:12:10.900Z,13.97
2017-06-14T05:14:38.969Z,14.67
2017-06-14T05:17:07.041Z,15.70
2017-06-14T05:19:35.110Z,14.87
2017-06-14T05:22:03.187Z,15.27
2017-06-14T05:24:31.258Z,15.20
2017-06-14T05:26:59.326Z,15.73
2017-06-14T05:29:27.392Z,16.30
2017-06-14T05:31:55.476Z,17.53
2017-06-14T05:34:23.536Z,16.77
2017-06-14T05:36:51.600Z,17.53
2017-06-14T05:39:19.676Z,19.20
2017-06-14T05:41:47.741Z,15.53
2017-06-14T05:44:15.812Z,15.07
2017-06-14T05:46:43.900Z,17.93
2017-06-14T05:49:11.981Z,17.67
2017-06-14T05:51:40.049Z,15.40
2017-06-14T05:54:08.107Z,14.73
2017-06-14T05:56:36.177Z,16.80
2017-06-14T05:59:04.232Z,17.60
2017-06-14T06:01:32.323Z,15.90
2017-06-14T06:04:00.396Z,18.07
2017-06-14T06:06:28.483Z,16.40
2017-06-14T06:08:56.555Z,15.47
2017-06-14T06:11:24.651Z,15.00
2017-06-14T06:13:53.499Z,13.07
2017-06-14T06:16:21.576Z,14.70
2017-06-14T06:18:49.662Z,14.93
2017-06-14T06:21:17.730Z,14.53
2017-06-14T06:23:45.822Z,13.93
2017-06-14T06:26:13.895Z,13.07
2017-06-14T06:28:41.975Z,13.00
2017-06-14T06:31:10.047Z,12.40
2017-06-14T06:33:38.131Z,13.63
2017-06-14T06:36:06.203Z,12.93
2017-06-14T06:38:35.055Z,14.27
2017-06-14T06:41:03.131Z,13.40
2017-06-14T06:43:31.211Z,12.73
2017-06-14T06:45:59.291Z,13.80
2017-06-14T06:48:27.367Z,13.20
2017-06-14T06:50:55.451Z,14.10
2017-06-14T06:53:24.287Z,12.77
2017-06-14T06:55:52.371Z,12.57
2017-06-14T06:58:20.447Z,12.40
2017-06-14T07:00:48.532Z,11.13
2017-06-14T07:03:16.609Z,11.93
2017-06-14T07:05:44.678Z,11.07
2017-06-14T07:08:12.764Z,11.40
2017-06-14T07:10:40.835Z,10.40
2017-06-14T07:13:08.918Z,9.67
2017-06-14T07:15:36.987Z,9.93
2017-06-14T07:18:05.067Z,10.20
2017-06-14T07:20:33.172Z,10.80
2017-06-14T07:23:01.264Z,8.93
2017-06-14T07:25:29.338Z,10.50
2017-06-14T07:27:57.426Z,11.10
2017-06-14T07:30:25.513Z,7.40
2017-06-14T07:32:53.587Z,8.93
2017-06-14T07:35:21.685Z,9.13
2017-06-14T07:37:49.738Z,9.00
2017-06-14T07:40:17.814Z,9.50
2017-06-14T07:42:45.877Z,8.53
2017-06-14T07:45:13.975Z,7.97
2017-06-14T07:47:42.040Z,7.47
2017-06-14T07:50:10.879Z,7.57
2017-06-14T07:52:38.948Z,7.87
2017-06-14T07:55:07.019Z,6.80
2017-06-14T07:57:35.104Z,8.80
2017-06-14T08:00:03.171Z,6.83
2017-06-14T08:02:31.255Z,6.80
2017-06-14T08:04:59.326Z,7.63
2017-06-14T08:07:27.419Z,6.93
2017-06-14T08:09:55.502Z,7.60
2017-06-14T08:12:23.563Z,6.10
2017-06-14T08:14:51.639Z,6.20
2017-06-14T08:17:19.707Z,6.33
2017-06-14T08:19:47.792Z,7.27
2017-06-14T08:22:15.855Z,5.63
2017-06-14T08:24:43.935Z,5.73
2017-06-14T08:27:12.001Z,4.90
2017-06-14T08:29:40.095Z,5.50
2017-06-14T08:32:08.162Z,5.40
2017-06-14T08:34:36.996Z,5.30
2017-06-14T08:37:05.067Z,5.47
2017-06-14T08:39:33.143Z,5.40
2017-06-14T08:42:01.223Z,5.60
2017-06-14T08:44:29.291Z,5.10
2017-06-14T08:46:57.358Z,5.17
2017-06-14T08:49:25.455Z,4.40
2017-06-14T08:51:53.531Z,5.40
2017-06-14T08:54:21.605Z,4.67
2017-06-14T08:56:49.672Z,4.60
2017-06-14T08:59:17.746Z,5.20
2017-06-14T09:01:45.811Z,4.60
2017-06-14T09:04:13.884Z,4.17
2017-06-14T09:06:41.971Z,4.57
2017-06-14T09:09:10.042Z,5.40
2017-06-14T09:11:38.119Z,4.80
2017-06-14T09:14:06.880Z,4.30
2017-06-14T09:16:34.963Z,4.57
2017-06-14T09:19:03.036Z,4.67
2017-06-14T09:21:31.112Z,4.40
2017-06-14T09:23:59.189Z,4.37
2017-06-14T09:26:27.250Z,4.60
2017-06-14T09:28:55.332Z,4.47
2017-06-14T09:31:23.395Z,3.70
2017-06-14T09:33:51.472Z,4.13
2017-06-14T09:36:19.544Z,3.30
2017-06-14T09:38:47.615Z,3.80
2017-06-14T09:41:15.686Z,3.30
2017-06-14T09:43:43.755Z,3.00
2017-06-14T09:46:11.836Z,3.03
2017-06-14T09:48:39.907Z,5.20
2017-06-14T09:51:07.991Z,3.50
2017-06-14T09:53:36.064Z,3.63
2017-06-14T09:56:04.136Z,3.40
2017-06-14T09:58:32.207Z,3.93
2017-06-14T10:01:00.279Z,3.53
2017-06-14T10:03:28.362Z,3.40
2017-06-14T10:05:56.427Z,3.17
2017-06-14T10:08:24.515Z,4.90
2017-06-14T10:10:52.587Z,3.43
2017-06-14T10:13:21.427Z,3.50
2017-06-14T10:15:49.499Z,3.70
2017-06-14T10:18:17.575Z,3.90
2017-06-14T10:20:45.638Z,3.73
2017-06-14T10:23:13.710Z,4.10
2017-06-14T10:25:41.786Z,5.20
2017-06-14T10:28:09.860Z,4.00
2017-06-14T10:30:37.930Z,4.23
2017-06-14T10:33:06.002Z,4.80
2017-06-14T10:35:34.091Z,4.23
2017-06-14T10:38:02.160Z,3.53
2017-06-14T10:40:30.247Z,3.37
2017-06-14T10:42:58.319Z,3.83
2017-06-14T10:45:26.382Z,4.03
2017-06-14T10:47:54.467Z,3.57
2017-06-14T10:50:22.526Z,4.63
2017-06-14T10:52:50.599Z,4.10
2017-06-14T10:55:18.676Z,3.50
2017-06-14T10:57:46.754Z,3.67
2017-06-14T11:00:14.818Z,4.43
2017-06-14T11:02:42.896Z,3.67
2017-06-14T11:05:10.962Z,4.83
2017-06-14T11:07:39.035Z,4.20
2017-06-14T11:10:07.123Z,4.30
2017-06-14T11:12:35.187Z,4.40
2017-06-14T11:15:03.267Z,4.27
2017-06-14T11:17:31.326Z,4.10
2017-06-14T11:19:59.393Z,3.90
2017-06-14T11:22:27.473Z,4.43
2017-06-14T11:24:55.575Z,5.80
2017-06-14T11:27:23.647Z,4.77
2017-06-14T11:29:52.490Z,5.30
2017-06-14T11:32:20.563Z,4.13
2017-06-14T11:34:48.632Z,5.07
2017-06-14T11:37:16.702Z,4.70
2017-06-14T11:39:44.776Z,4.40
2017-06-14T11:42:12.842Z,4.37
2017-06-14T11:44:40.915Z,4.30
2017-06-14T11:47:08.991Z,3.70
2017-06-14T11:49:37.060Z,4.77
2017-06-14T11:52:08.044Z,3.87
2017-06-14T11:54:36.122Z,4.07
2017-06-14T11:57:04.188Z,4.73
2017-06-14T11:59:32.260Z,3.43
2017-06-14T12:02:00.348Z,4.40
2017-06-14T12:04:29.191Z,4.03
2017-06-14T12:06:57.267Z,3.40
2017-06-14T12:09:25.342Z,4.17
2017-06-14T12:11:53.411Z,3.73
2017-06-14T12:14:21.496Z,3.63
2017-06-14T12:16:49.568Z,3.83
2017-06-14T12:19:17.643Z,3.60
2017-06-14T12:21:45.714Z,3.10
2017-06-14T12:24:13.791Z,3.43
2017-06-14T12:26:41.871Z,4.00
2017-06-14T12:29:09.942Z,6.50
2017-06-14T12:31:38.020Z,4.70
2017-06-14T12:34:06.567Z,5.30
2017-06-14T12:36:34.636Z,3.67
2017-06-14T12:39:02.711Z,3.90
2017-06-14T12:41:30.787Z,17.23
2017-06-14T12:43:58.871Z,5.47
2017-06-14T12:46:26.928Z,3.50
2017-06-14T12:48:54.998Z,3.53
2017-06-14T12:51:23.072Z,3.57
2017-06-14T12:53:51.172Z,3.60
2017-06-14T12:56:19.235Z,3.40
2017-06-14T12:58:48.110Z,3.43
2017-06-14T13:01:16.180Z,3.47
2017-06-14T13:03:44.250Z,3.27
2017-06-14T13:06:12.327Z,3.27
2017-06-14T13:08:40.395Z,3.97
2017-06-14T13:11:08.471Z,3.77
2017-06-14T13:13:36.539Z,3.60
2017-06-14T13:16:04.611Z,3.30
2017-06-14T13:18:32.683Z,3.30
2017-06-14T13:21:00.764Z,3.27
2017-06-14T13:23:28.830Z,3.83
2017-06-14T13:25:56.908Z,3.20
2017-06-14T13:28:24.991Z,3.03
2017-06-14T13:30:53.062Z,3.40
2017-06-14T13:33:21.187Z,3.40
2017-06-14T13:35:50.023Z,3.43
2017-06-14T13:38:18.104Z,3.67
2017-06-14T13:40:46.176Z,3.10
2017-06-14T13:43:14.251Z,3.63
2017-06-14T13:45:42.327Z,3.20
2017-06-14T13:48:10.398Z,3.93
2017-06-14T13:50:38.468Z,3.70
2017-06-14T13:53:06.539Z,4.47
2017-06-14T13:55:34.619Z,3.50
2017-06-14T13:58:02.682Z,3.60
2017-06-14T14:00:30.771Z,3.47
2017-06-14T14:02:58.855Z,2.90
2017-06-14T14:05:26.928Z,4.10
2017-06-14T14:07:54.991Z,3.80
2017-06-14T14:10:23.072Z,3.90
2017-06-14T14:12:51.146Z,3.37
2017-06-14T14:15:19.230Z,3.87
2017-06-14T14:17:48.079Z,3.33
2017-06-14T14:20:16.155Z,3.37
2017-06-14T14:22:44.227Z,3.40
2017-06-14T14:25:12.294Z,2.90
2017-06-14T14:27:40.375Z,3.43
2017-06-14T14:30:08.443Z,3.97
2017-06-14T14:32:36.530Z,3.27
2017-06-14T14:35:04.619Z,3.00
2017-06-14T14:37:33.459Z,2.83
2017-06-14T14:40:01.547Z,3.70
2017-06-14T14:42:29.615Z,3.67
2017-06-14T14:44:57.694Z,3.80
2017-06-14T14:47:25.767Z,3.50
2017-06-14T14:49:53.839Z,3.90
2017-06-14T14:52:21.915Z,3.17
2017-06-14T14:54:50.006Z,2.97
2017-06-14T14:57:18.075Z,3.33
2017-06-14T14:59:46.147Z,3.13
2017-06-14T15:02:14.224Z,3.43
2017-06-14T15:04:42.308Z,2.70
2017-06-14T15:07:10.409Z,2.50
2017-06-14T15:09:38.467Z,2.57
2017-06-14T15:12:06.539Z,2.90
2017-06-14T15:14:34.613Z,3.27
2017-06-14T15:17:02.683Z,3.30
2017-06-14T15:19:30.755Z,2.83
2017-06-14T15:21:58.831Z,4.03
2017-06-14T15:24:26.903Z,3.27
2017-06-14T15:26:54.975Z,2.60
2017-06-14T15:29:23.052Z,3.20
2017-06-14T15:31:51.120Z,2.87
2017-06-14T15:34:19.959Z,3.47
2017-06-14T15:36:48.034Z,3.00
2017-06-14T15:39:16.111Z,3.27
2017-06-14T15:41:44.175Z,3.07
2017-06-14T15:44:12.263Z,2.97
2017-06-14T15:46:40.334Z,3.10
2017-06-14T15:49:08.398Z,2.40
2017-06-14T15:51:36.476Z,3.20
2017-06-14T15:54:05.151Z,3.50
2017-06-14T15:56:33.251Z,3.37
2017-06-14T15:59:01.317Z,3.37
2017-06-14T16:01:29.407Z,3.43
2017-06-14T16:03:57.479Z,3.10
2017-06-14T16:06:26.319Z,2.87
2017-06-14T16:08:54.386Z,3.17
2017-06-14T16:11:22.455Z,2.70
2017-06-14T16:13:50.531Z,3.00
2017-06-14T16:16:18.606Z,3.50
2017-06-14T16:18:46.683Z,3.47
2017-06-14T16:21:14.764Z,2.50
2017-06-14T16:23:42.874Z,3.00
2017-06-14T16:26:11.712Z,3.00
2017-06-14T16:28:39.791Z,3.23
2017-06-14T16:31:07.870Z,3.67
2017-06-14T16:33:35.939Z,4.57
2017-06-14T16:36:04.031Z,3.80
2017-06-14T16:38:32.110Z,5.23
2017-06-14T16:41:00.194Z,4.40
2017-06-14T16:43:28.250Z,3.47
2017-06-14T16:45:56.343Z,3.43
2017-06-14T16:48:24.410Z,3.83
2017-06-14T16:50:52.478Z,3.60
2017-06-14T16:53:20.557Z,3.73
2017-06-14T16:55:48.638Z,3.13
2017-06-14T16:58:17.482Z,3.20
2017-06-14T17:00:45.555Z,3.13
2017-06-14T17:03:13.639Z,3.57
2017-06-14T17:05:41.711Z,3.03
2017-06-14T17:08:09.782Z,3.57
2017-06-14T17:10:37.855Z,3.87
2017-06-14T17:13:05.947Z,3.20
2017-06-14T17:15:34.016Z,3.33
2017-06-14T17:18:02.087Z,3.63
2017-06-14T17:20:30.171Z,4.50
2017-06-14T17:22:58.243Z,4.60
2017-06-14T17:25:26.314Z,3.60
2017-06-14T17:27:54.375Z,3.40
2017-06-14T17:30:22.451Z,3.27
2017-06-14T17:32:50.519Z,3.07
2017-06-14T17:35:18.609Z,2.90
2017-06-14T17:37:46.684Z,2.90
2017-06-14T17:40:14.753Z,2.73
2017-06-14T17:42:42.831Z,3.40
2017-06-14T17:45:10.894Z,3.27
2017-06-14T17:47:38.967Z,3.60
2017-06-14T17:50:07.031Z,3.20
2017-06-14T17:52:35.111Z,3.10
2017-06-14T17:55:03.177Z,3.83
2017-06-14T17:57:31.281Z,3.10
2017-06-14T17:59:59.343Z,3.30
2017-06-14T18:02:28.182Z,2.77
2017-06-14T18:04:56.263Z,3.30
2017-06-14T18:07:24.377Z,3.60
2017-06-14T18:09:52.455Z,3.70
2017-06-14T18:12:21.283Z,3.67
2017-06-14T18:14:49.363Z,3.47
2017-06-14T18:17:17.434Z,3.70
2017-06-14T18:19:45.515Z,3.30
2017-06-14T18:22:13.586Z,4.20
2017-06-14T18:24:41.650Z,4.70
2017-06-14T18:27:09.735Z,4.63
2017-06-14T18:29:37.807Z,3.90
2017-06-14T18:32:05.883Z,4.20
2017-06-14T18:34:33.954Z,3.90
2017-06-14T18:37:02.043Z,4.77
2017-06-14T18:39:30.115Z,3.80
2017-06-14T18:41:58.203Z,3.10
2017-06-14T18:44:27.055Z,4.10
2017-06-14T18:46:55.128Z,3.50
2017-06-14T18:49:23.207Z,3.90
2017-06-14T18:51:51.279Z,4.37
2017-06-14T18:54:19.352Z,5.10
2017-06-14T18:56:47.419Z,4.00
2017-06-14T18:59:15.498Z,3.60
2017-06-14T19:01:43.567Z,4.63
2017-06-14T19:04:11.663Z,4.80
2017-06-14T19:06:39.742Z,5.90
2017-06-14T19:09:07.887Z,5.80
2017-06-14T19:11:37.185Z,5.60
2017-06-14T19:14:05.250Z,5.43
2017-06-14T19:16:33.330Z,5.23
2017-06-14T19:19:01.406Z,5.40
2017-06-14T19:21:29.478Z,5.67
2017-06-14T19:24:14.252Z,6.67
2017-06-14T19:26:47.918Z,7.57
2017-06-14T19:29:15.991Z,5.93
2017-06-14T19:31:44.088Z,6.03
2017-06-14T19:34:12.377Z,5.43
2017-06-14T19:36:45.990Z,4.90
2017-06-14T19:39:14.054Z,5.03
2017-06-14T19:41:42.130Z,4.50
2017-06-14T19:44:10.211Z,4.80
2017-06-14T19:46:38.298Z,5.00
2017-06-14T19:49:07.150Z,4.70
2017-06-14T19:51:35.224Z,4.77
2017-06-14T19:54:03.314Z,4.77
2017-06-14T19:56:31.394Z,4.80
2017-06-14T19:58:59.460Z,6.30
2017-06-14T20:01:27.539Z,6.30
2017-06-14T20:03:55.610Z,5.20
2017-06-14T20:06:23.695Z,4.80
2017-06-14T20:08:52.535Z,5.13
2017-06-14T20:11:20.622Z,4.83
2017-06-14T20:13:48.693Z,5.83
2017-06-14T20:16:16.843Z,5.30
2017-06-14T20:18:44.926Z,5.30
2017-06-14T20:21:13.007Z,5.53
2017-06-14T20:23:41.087Z,5.00
2017-06-14T20:26:09.155Z,5.70
2017-06-14T20:28:37.233Z,5.43
2017-06-14T20:31:05.302Z,6.17
2017-06-14T20:33:33.377Z,5.80
2017-06-14T20:36:01.447Z,6.43
2017-06-14T20:38:29.519Z,5.63
2017-06-14T20:40:57.586Z,7.13
2017-06-14T20:43:25.661Z,7.63
2017-06-14T20:45:53.743Z,7.00
2017-06-14T20:48:21.804Z,6.50
2017-06-14T20:50:49.883Z,6.90
2017-06-14T20:53:17.953Z,5.20
2017-06-14T20:55:46.052Z,5.50
2017-06-14T20:58:14.154Z,6.43
2017-06-14T21:00:42.203Z,4.83
2017-06-14T21:03:11.039Z,5.80
2017-06-14T21:05:39.115Z,4.93
2017-06-14T21:08:07.219Z,5.30
2017-06-14T21:10:35.281Z,5.63
2017-06-14T21:13:03.352Z,5.87
2017-06-14T21:15:31.440Z,5.70
2017-06-14T21:17:59.510Z,6.73
2017-06-14T21:20:27.579Z,5.90
2017-06-14T21:22:55.651Z,5.90
2017-06-14T21:25:23.739Z,5.40
2017-06-14T21:27:51.799Z,5.70
2017-06-14T21:30:19.870Z,6.20
2017-06-14T21:32:47.943Z,5.70
2017-06-14T21:35:16.027Z,6.20
2017-06-14T21:37:44.104Z,5.07
2017-06-14T21:40:12.172Z,4.60
2017-06-14T21:42:40.243Z,4.80
2017-06-14T21:45:08.315Z,5.67
2017-06-14T21:47:36.404Z,5.07
2017-06-14T21:50:05.235Z,5.03
2017-06-14T21:52:33.311Z,5.10
2017-06-14T21:55:01.400Z,5.13
2017-06-14T21:57:29.467Z,5.77
2017-06-14T21:59:57.548Z,7.03
2017-06-14T22:02:25.611Z,6.77
2017-06-14T22:04:53.687Z,7.60
2017-06-14T22:07:21.759Z,8.87
2017-06-14T22:09:49.830Z,7.90
2017-06-14T22:12:17.907Z,8.03
2017-06-14T22:14:45.979Z,8.50
2017-06-14T22:17:14.051Z,8.33
2017-06-14T22:19:42.128Z,10.40
2017-06-14T22:22:10.218Z,10.03
2017-06-14T22:24:38.285Z,8.80
2017-06-14T22:27:06.359Z,9.10
2017-06-14T22:29:34.428Z,9.57
2017-06-14T22:32:02.511Z,8.80
2017-06-14T22:34:30.661Z,9.43
2017-06-14T22:36:58.731Z,9.50
2017-06-14T22:39:26.811Z,9.03
2017-06-14T22:41:54.887Z,7.90
2017-06-14T22:44:22.962Z,7.87
2017-06-14T22:46:51.040Z,7.33
2017-06-14T22:49:19.440Z,7.47
2017-06-14T22:51:48.278Z,7.50
2017-06-14T22:54:16.350Z,9.17
2017-06-14T22:56:44.434Z,8.70
2017-06-14T22:59:12.509Z,8.60
2017-06-14T23:01:40.580Z,7.77
2017-06-14T23:04:08.651Z,9.87
2017-06-14T23:06:36.743Z,9.37
2017-06-14T23:09:04.811Z,9.03
2017-06-14T23:11:32.889Z,8.97
2017-06-14T23:14:00.966Z,8.40
2017-06-14T23:16:29.038Z,8.50
2017-06-14T23:18:57.115Z,8.53
2017-06-14T23:21:25.175Z,7.43
2017-06-14T23:23:53.260Z,7.93
2017-06-14T23:26:21.319Z,9.23
2017-06-14T23:28:49.405Z,9.30
2017-06-14T23:31:17.463Z,8.07
2017-06-14T23:33:45.591Z,9.80
2017-06-14T23:36:13.670Z,9.33
2017-06-14T23:38:41.743Z,8.87
2017-06-14T23:41:09.819Z,7.93
2017-06-14T23:43:37.892Z,8.80
2017-06-14T23:46:05.971Z,8.30
2017-06-14T23:48:34.043Z,7.63
2017-06-14T23:51:02.127Z,8.90
2017-06-14T23:53:30.202Z,9.03
2017-06-14T23:55:58.262Z,8.37
2017-06-14T23:58:26.342Z,7.93
